sensor_id;sensor_type;location;lat;lon;timestamp;temperature;humidity
22706;DHT22;11520;51.198;4.468;2022-10-04T00:01:07;12.90;99.90
22706;DHT22;11520;51.198;4.468;2022-10-04T00:03:43;12.90;99.90
22706;DHT22;11520;51.198;4.468;2022-10-04T00:06:19;12.80;99.90
22706;DHT22;11520;51.198;4.468;2022-10-04T00:09:19;12.80;99.90
22706;DHT22;11520;51.198;4.468;2022-10-04T00:11:49;12.70;99.90
22706;DHT22;11520;51.198;4.468;2022-10-04T00:14:35;12.60;99.90
22706;DHT22;11520;51.198;4.468;2022-10-04T00:17:11;12.60;99.90
22706;DHT22;11520;51.198;4.468;2022-10-04T00:24:36;12.60;99.90
22706;DHT22;11520;51.198;4.468;2022-10-04T00:29:37;12.70;99.90
22706;DHT22;11520;51.198;4.468;2022-10-04T00:37:16;12.70;99.90
22706;DHT22;11520;51.198;4.468;2022-10-04T00:39:54;12.70;99.90
22706;DHT22;11520;51.198;4.468;2022-10-04T00:42:46;12.70;99.90
22706;DHT22;11520;51.198;4.468;2022-10-04T00:52:56;12.60;99.90
22706;DHT22;11520;51.198;4.468;2022-10-04T00:55:37;12.50;99.90
22706;DHT22;11520;51.198;4.468;2022-10-04T00:58:13;12.60;99.90
22706;DHT22;11520;51.198;4.468;2022-10-04T01:00:43;12.50;99.90
22706;DHT22;11520;51.198;4.468;2022-10-04T01:03:22;12.40;99.90
22706;DHT22;11520;51.198;4.468;2022-10-04T01:05:53;12.30;99.90
22706;DHT22;11520;51.198;4.468;2022-10-04T01:08:29;12.20;99.90
22706;DHT22;11520;51.198;4.468;2022-10-04T01:11:02;12.10;99.90
22706;DHT22;11520;51.198;4.468;2022-10-04T01:13:50;12.10;99.90
22706;DHT22;11520;51.198;4.468;2022-10-04T01:16:28;12.10;99.90
22706;DHT22;11520;51.198;4.468;2022-10-04T01:18:54;12.00;99.90
22706;DHT22;11520;51.198;4.468;2022-10-04T01:21:31;12.00;99.90
22706;DHT22;11520;51.198;4.468;2022-10-04T01:31:33;12.00;99.90
22706;DHT22;11520;51.198;4.468;2022-10-04T01:34:00;11.90;99.90
22706;DHT22;11520;51.198;4.468;2022-10-04T01:36:27;12.00;99.90
22706;DHT22;11520;51.198;4.468;2022-10-04T01:38:53;12.00;99.90
22706;DHT22;11520;51.198;4.468;2022-10-04T01:41:49;12.00;99.90
22706;DHT22;11520;51.198;4.468;2022-10-04T01:44:36;11.90;99.90
22706;DHT22;11520;51.198;4.468;2022-10-04T01:47:08;11.90;99.90
22706;DHT22;11520;51.198;4.468;2022-10-04T01:49:38;12.00;99.90
22706;DHT22;11520;51.198;4.468;2022-10-04T01:52:19;12.00;99.90
22706;DHT22;11520;51.198;4.468;2022-10-04T01:54:59;11.90;99.90
22706;DHT22;11520;51.198;4.468;2022-10-04T01:57:34;11.90;99.90
22706;DHT22;11520;51.198;4.468;2022-10-04T02:00:05;11.90;99.90
22706;DHT22;11520;51.198;4.468;2022-10-04T02:02:39;11.90;99.90
22706;DHT22;11520;51.198;4.468;2022-10-04T02:05:06;11.90;99.90
22706;DHT22;11520;51.198;4.468;2022-10-04T02:07:33;11.80;99.90
22706;DHT22;11520;51.198;4.468;2022-10-04T02:10:03;11.70;99.90
22706;DHT22;11520;51.198;4.468;2022-10-04T02:12:30;11.70;99.90
22706;DHT22;11520;51.198;4.468;2022-10-04T02:15:02;11.60;99.90
22706;DHT22;11520;51.198;4.468;2022-10-04T02:17:32;11.50;99.90
22706;DHT22;11520;51.198;4.468;2022-10-04T02:20:03;11.60;99.90
22706;DHT22;11520;51.198;4.468;2022-10-04T02:22:33;11.50;99.90
22706;DHT22;11520;51.198;4.468;2022-10-04T02:24:59;11.20;99.90
22706;DHT22;11520;51.198;4.468;2022-10-04T02:27:27;11.10;99.90
22706;DHT22;11520;51.198;4.468;2022-10-04T02:30:05;11.10;99.90
22706;DHT22;11520;51.198;4.468;2022-10-04T02:32:32;11.20;99.90
22706;DHT22;11520;51.198;4.468;2022-10-04T02:35:16;11.20;99.90
22706;DHT22;11520;51.198;4.468;2022-10-04T02:37:42;11.20;99.90
22706;DHT22;11520;51.198;4.468;2022-10-04T02:40:14;11.20;99.90
22706;DHT22;11520;51.198;4.468;2022-10-04T02:42:50;11.10;99.90
22706;DHT22;11520;51.198;4.468;2022-10-04T02:45:54;11.00;99.90
22706;DHT22;11520;51.198;4.468;2022-10-04T02:48:34;11.00;99.90
22706;DHT22;11520;51.198;4.468;2022-10-04T02:51:14;11.00;99.90
22706;DHT22;11520;51.198;4.468;2022-10-04T02:56:41;10.70;99.90
22706;DHT22;11520;51.198;4.468;2022-10-04T02:59:14;10.70;99.90
22706;DHT22;11520;51.198;4.468;2022-10-04T03:01:52;10.80;99.90
22706;DHT22;11520;51.198;4.468;2022-10-04T03:04:24;10.80;99.90
22706;DHT22;11520;51.198;4.468;2022-10-04T03:06:56;10.90;99.90
22706;DHT22;11520;51.198;4.468;2022-10-04T03:09:28;10.90;99.90
22706;DHT22;11520;51.198;4.468;2022-10-04T03:11:54;10.80;99.90
22706;DHT22;11520;51.198;4.468;2022-10-04T03:14:25;10.90;99.90
22706;DHT22;11520;51.198;4.468;2022-10-04T03:16:56;10.80;99.90
22706;DHT22;11520;51.198;4.468;2022-10-04T03:19:26;10.80;99.90
22706;DHT22;11520;51.198;4.468;2022-10-04T03:21:55;10.70;99.90
22706;DHT22;11520;51.198;4.468;2022-10-04T03:24:31;10.70;99.90
22706;DHT22;11520;51.198;4.468;2022-10-04T03:27:00;10.80;99.90
22706;DHT22;11520;51.198;4.468;2022-10-04T03:29:30;10.80;99.90
22706;DHT22;11520;51.198;4.468;2022-10-04T03:31:57;10.80;99.90
22706;DHT22;11520;51.198;4.468;2022-10-04T03:34:39;10.80;99.90
22706;DHT22;11520;51.198;4.468;2022-10-04T03:37:08;10.80;99.90
22706;DHT22;11520;51.198;4.468;2022-10-04T03:39:42;10.70;99.90
22706;DHT22;11520;51.198;4.468;2022-10-04T03:42:23;10.70;99.90
22706;DHT22;11520;51.198;4.468;2022-10-04T03:44:53;10.60;99.90
22706;DHT22;11520;51.198;4.468;2022-10-04T03:47:24;10.60;99.90
22706;DHT22;11520;51.198;4.468;2022-10-04T03:49:52;10.70;99.90
22706;DHT22;11520;51.198;4.468;2022-10-04T03:52:32;10.70;99.90
22706;DHT22;11520;51.198;4.468;2022-10-04T03:55:02;10.70;99.90
22706;DHT22;11520;51.198;4.468;2022-10-04T03:57:30;10.60;99.90
22706;DHT22;11520;51.198;4.468;2022-10-04T03:59:58;10.50;99.90
22706;DHT22;11520;51.198;4.468;2022-10-04T04:07:25;10.40;99.90
22706;DHT22;11520;51.198;4.468;2022-10-04T04:10:02;10.50;99.90
22706;DHT22;11520;51.198;4.468;2022-10-04T04:12:45;10.50;99.90
22706;DHT22;11520;51.198;4.468;2022-10-04T04:15:13;10.40;99.90
22706;DHT22;11520;51.198;4.468;2022-10-04T04:17:42;10.40;99.90
22706;DHT22;11520;51.198;4.468;2022-10-04T04:20:20;10.40;99.90
22706;DHT22;11520;51.198;4.468;2022-10-04T04:25:24;10.50;99.90
22706;DHT22;11520;51.198;4.468;2022-10-04T04:27:58;10.50;99.90
22706;DHT22;11520;51.198;4.468;2022-10-04T04:30:24;10.40;99.90
22706;DHT22;11520;51.198;4.468;2022-10-04T04:32:53;10.30;99.90
22706;DHT22;11520;51.198;4.468;2022-10-04T04:35:30;10.20;99.90
22706;DHT22;11520;51.198;4.468;2022-10-04T04:38:12;10.00;99.90
22706;DHT22;11520;51.198;4.468;2022-10-04T04:40:39;10.00;99.90
22706;DHT22;11520;51.198;4.468;2022-10-04T04:43:05;10.00;99.90
22706;DHT22;11520;51.198;4.468;2022-10-04T04:45:32;10.00;99.90
22706;DHT22;11520;51.198;4.468;2022-10-04T04:47:59;10.10;99.90
22706;DHT22;11520;51.198;4.468;2022-10-04T04:50:33;10.10;99.90
22706;DHT22;11520;51.198;4.468;2022-10-04T04:53:07;10.20;99.90
22706;DHT22;11520;51.198;4.468;2022-10-04T04:55:43;10.20;99.90
22706;DHT22;11520;51.198;4.468;2022-10-04T04:58:20;10.20;99.90
22706;DHT22;11520;51.198;4.468;2022-10-04T05:00:55;10.20;99.90
22706;DHT22;11520;51.198;4.468;2022-10-04T05:03:22;10.30;99.90
22706;DHT22;11520;51.198;4.468;2022-10-04T05:05:48;10.30;99.90
22706;DHT22;11520;51.198;4.468;2022-10-04T05:08:26;10.30;99.90
22706;DHT22;11520;51.198;4.468;2022-10-04T05:11:12;10.40;99.90
22706;DHT22;11520;51.198;4.468;2022-10-04T05:13:54;10.40;99.90
22706;DHT22;11520;51.198;4.468;2022-10-04T05:16:37;10.30;99.90
22706;DHT22;11520;51.198;4.468;2022-10-04T05:19:24;10.30;99.90
22706;DHT22;11520;51.198;4.468;2022-10-04T05:21:56;10.20;99.90
22706;DHT22;11520;51.198;4.468;2022-10-04T05:32:49;9.90;99.90
22706;DHT22;11520;51.198;4.468;2022-10-04T05:35:21;9.90;99.90
22706;DHT22;11520;51.198;4.468;2022-10-04T05:38:14;10.00;99.90
22706;DHT22;11520;51.198;4.468;2022-10-04T05:40:59;10.00;99.90
22706;DHT22;11520;51.198;4.468;2022-10-04T05:43:45;10.00;99.90
22706;DHT22;11520;51.198;4.468;2022-10-04T05:46:29;10.10;99.90
22706;DHT22;11520;51.198;4.468;2022-10-04T05:49:07;10.10;99.90
22706;DHT22;11520;51.198;4.468;2022-10-04T05:52:04;10.10;99.90
22706;DHT22;11520;51.198;4.468;2022-10-04T05:54:35;10.10;99.90
22706;DHT22;11520;51.198;4.468;2022-10-04T05:57:33;10.10;99.90
22706;DHT22;11520;51.198;4.468;2022-10-04T06:00:10;10.10;99.90
22706;DHT22;11520;51.198;4.468;2022-10-04T06:03:10;10.00;99.90
22706;DHT22;11520;51.198;4.468;2022-10-04T06:05:54;9.90;99.90
22706;DHT22;11520;51.198;4.468;2022-10-04T06:13:43;10.00;99.90
22706;DHT22;11520;51.198;4.468;2022-10-04T06:16:23;10.00;99.90
22706;DHT22;11520;51.198;4.468;2022-10-04T06:24:34;10.10;99.90
22706;DHT22;11520;51.198;4.468;2022-10-04T06:27:13;10.20;99.90
22706;DHT22;11520;51.198;4.468;2022-10-04T06:29:42;10.30;99.90
22706;DHT22;11520;51.198;4.468;2022-10-04T06:49:19;10.10;99.90
22706;DHT22;11520;51.198;4.468;2022-10-04T06:57:47;10.20;99.90
22706;DHT22;11520;51.198;4.468;2022-10-04T07:00:22;10.30;99.90
22706;DHT22;11520;51.198;4.468;2022-10-04T07:03:04;10.20;99.90
22706;DHT22;11520;51.198;4.468;2022-10-04T07:08:34;10.20;99.90
22706;DHT22;11520;51.198;4.468;2022-10-04T07:16:29;10.40;99.90
22706;DHT22;11520;51.198;4.468;2022-10-04T07:22:00;10.60;99.90
22706;DHT22;11520;51.198;4.468;2022-10-04T07:31:09;11.10;99.90
22706;DHT22;11520;51.198;4.468;2022-10-04T07:33:43;11.30;99.90
22706;DHT22;11520;51.198;4.468;2022-10-04T07:36:12;11.60;99.90
22706;DHT22;11520;51.198;4.468;2022-10-04T07:39:19;12.00;99.90
22706;DHT22;11520;51.198;4.468;2022-10-04T07:41:52;12.60;99.90
22706;DHT22;11520;51.198;4.468;2022-10-04T07:44:34;13.30;99.90
22706;DHT22;11520;51.198;4.468;2022-10-04T07:47:20;14.20;99.90
22706;DHT22;11520;51.198;4.468;2022-10-04T07:49:48;15.30;99.90
22706;DHT22;11520;51.198;4.468;2022-10-04T07:52:48;16.50;99.90
22706;DHT22;11520;51.198;4.468;2022-10-04T07:58:21;18.70;99.90
22706;DHT22;11520;51.198;4.468;2022-10-04T08:01:09;19.40;99.90
22706;DHT22;11520;51.198;4.468;2022-10-04T08:09:50;20.80;99.90
22706;DHT22;11520;51.198;4.468;2022-10-04T08:12:18;20.50;99.90
22706;DHT22;11520;51.198;4.468;2022-10-04T08:15:14;20.90;99.90
22706;DHT22;11520;51.198;4.468;2022-10-04T08:18:00;22.30;99.90
22706;DHT22;11520;51.198;4.468;2022-10-04T08:28:29;23.10;99.90
22706;DHT22;11520;51.198;4.468;2022-10-04T08:31:47;23.80;98.30
22706;DHT22;11520;51.198;4.468;2022-10-04T08:40:41;22.20;99.90
22706;DHT22;11520;51.198;4.468;2022-10-04T08:43:34;22.00;99.90
22706;DHT22;11520;51.198;4.468;2022-10-04T08:55:19;22.70;99.90
22706;DHT22;11520;51.198;4.468;2022-10-04T09:15:20;25.80;87.30
22706;DHT22;11520;51.198;4.468;2022-10-04T09:21:07;24.90;91.90
22706;DHT22;11520;51.198;4.468;2022-10-04T09:26:21;25.40;90.00
22706;DHT22;11520;51.198;4.468;2022-10-04T09:37:23;29.20;74.60
22706;DHT22;11520;51.198;4.468;2022-10-04T09:40:40;28.70;73.40
22706;DHT22;11520;51.198;4.468;2022-10-04T09:51:35;30.30;64.30
22706;DHT22;11520;51.198;4.468;2022-10-04T09:59:50;29.30;67.30
22706;DHT22;11520;51.198;4.468;2022-10-04T10:05:29;28.60;65.90
22706;DHT22;11520;51.198;4.468;2022-10-04T10:33:44;23.70;92.40
22706;DHT22;11520;51.198;4.468;2022-10-04T10:36:20;24.10;92.40
22706;DHT22;11520;51.198;4.468;2022-10-04T10:38:59;25.20;90.70
22706;DHT22;11520;51.198;4.468;2022-10-04T10:47:38;27.20;77.00
22706;DHT22;11520;51.198;4.468;2022-10-04T10:56:22;26.70;78.70
22706;DHT22;11520;51.198;4.468;2022-10-04T11:07:55;27.00;82.20
22706;DHT22;11520;51.198;4.468;2022-10-04T11:16:47;26.30;80.40
22706;DHT22;11520;51.198;4.468;2022-10-04T11:19:42;26.20;83.40
22706;DHT22;11520;51.198;4.468;2022-10-04T11:27:34;26.10;81.70
22706;DHT22;11520;51.198;4.468;2022-10-04T11:30:51;26.10;82.00
22706;DHT22;11520;51.198;4.468;2022-10-04T11:41:55;26.30;82.80
22706;DHT22;11520;51.198;4.468;2022-10-04T11:44:38;26.60;81.60
22706;DHT22;11520;51.198;4.468;2022-10-04T11:50:24;26.60;80.60
22706;DHT22;11520;51.198;4.468;2022-10-04T11:58:13;26.90;78.20
22706;DHT22;11520;51.198;4.468;2022-10-04T12:09:46;26.30;81.70
22706;DHT22;11520;51.198;4.468;2022-10-04T12:31:55;24.80;91.40
22706;DHT22;11520;51.198;4.468;2022-10-04T12:34:28;24.50;91.80
22706;DHT22;11520;51.198;4.468;2022-10-04T12:45:16;22.60;97.00
22706;DHT22;11520;51.198;4.468;2022-10-04T12:48:09;22.50;99.20
22706;DHT22;11520;51.198;4.468;2022-10-04T12:51:02;22.30;99.90
22706;DHT22;11520;51.198;4.468;2022-10-04T12:54:07;23.00;99.90
22706;DHT22;11520;51.198;4.468;2022-10-04T12:56:45;22.80;99.20
22706;DHT22;11520;51.198;4.468;2022-10-04T13:04:40;21.80;99.90
22706;DHT22;11520;51.198;4.468;2022-10-04T13:18:55;21.00;99.90
22706;DHT22;11520;51.198;4.468;2022-10-04T13:35:16;20.80;99.90
22706;DHT22;11520;51.198;4.468;2022-10-04T13:41:08;20.60;99.90
22706;DHT22;11520;51.198;4.468;2022-10-04T13:47:52;20.30;99.90
22706;DHT22;11520;51.198;4.468;2022-10-04T14:07:03;20.40;99.90
22706;DHT22;11520;51.198;4.468;2022-10-04T14:09:44;20.30;99.90
22706;DHT22;11520;51.198;4.468;2022-10-04T14:15:29;20.10;99.90
22706;DHT22;11520;51.198;4.468;2022-10-04T14:34:44;20.00;99.90
22706;DHT22;11520;51.198;4.468;2022-10-04T14:42:51;20.40;99.90
22706;DHT22;11520;51.198;4.468;2022-10-04T14:45:25;20.50;99.90
22706;DHT22;11520;51.198;4.468;2022-10-04T14:51:33;20.30;99.90
22706;DHT22;11520;51.198;4.468;2022-10-04T15:00:06;20.10;99.90
22706;DHT22;11520;51.198;4.468;2022-10-04T15:08:17;19.90;99.90
22706;DHT22;11520;51.198;4.468;2022-10-04T15:11:07;19.70;99.90
22706;DHT22;11520;51.198;4.468;2022-10-04T15:13:47;19.70;99.90
22706;DHT22;11520;51.198;4.468;2022-10-04T15:19:21;19.80;99.90
22706;DHT22;11520;51.198;4.468;2022-10-04T15:27:25;19.90;99.90
22706;DHT22;11520;51.198;4.468;2022-10-04T15:43:34;19.90;99.90
22706;DHT22;11520;51.198;4.468;2022-10-04T16:00:20;19.70;99.90
22706;DHT22;11520;51.198;4.468;2022-10-04T16:16:31;19.20;99.90
22706;DHT22;11520;51.198;4.468;2022-10-04T16:21:53;19.20;99.90
22706;DHT22;11520;51.198;4.468;2022-10-04T16:29:38;18.90;99.90
22706;DHT22;11520;51.198;4.468;2022-10-04T16:32:21;18.90;99.90
22706;DHT22;11520;51.198;4.468;2022-10-04T16:34:55;18.90;99.90
22706;DHT22;11520;51.198;4.468;2022-10-04T16:37:30;18.90;99.90
22706;DHT22;11520;51.198;4.468;2022-10-04T16:40:02;18.90;99.90
22706;DHT22;11520;51.198;4.468;2022-10-04T16:42:48;19.00;99.90
22706;DHT22;11520;51.198;4.468;2022-10-04T16:48:26;18.80;99.90
22706;DHT22;11520;51.198;4.468;2022-10-04T16:54:31;18.60;99.90
22706;DHT22;11520;51.198;4.468;2022-10-04T17:07:31;18.20;99.90
22706;DHT22;11520;51.198;4.468;2022-10-04T17:10:18;18.10;99.90
22706;DHT22;11520;51.198;4.468;2022-10-04T17:26:41;17.60;99.90
22706;DHT22;11520;51.198;4.468;2022-10-04T17:31:57;17.60;99.90
22706;DHT22;11520;51.198;4.468;2022-10-04T17:37:53;17.50;99.90
22706;DHT22;11520;51.198;4.468;2022-10-04T17:43:18;17.40;99.90
22706;DHT22;11520;51.198;4.468;2022-10-04T17:46:15;17.50;99.90
22706;DHT22;11520;51.198;4.468;2022-10-04T17:49:03;17.50;99.90
22706;DHT22;11520;51.198;4.468;2022-10-04T17:51:54;17.70;99.90
22706;DHT22;11520;51.198;4.468;2022-10-04T17:54:44;17.70;99.90
22706;DHT22;11520;51.198;4.468;2022-10-04T18:00:59;17.70;99.90
22706;DHT22;11520;51.198;4.468;2022-10-04T18:11:51;17.60;99.90
22706;DHT22;11520;51.198;4.468;2022-10-04T18:14:37;17.60;99.90
22706;DHT22;11520;51.198;4.468;2022-10-04T18:17:10;17.50;99.90
22706;DHT22;11520;51.198;4.468;2022-10-04T18:22:19;17.40;99.90
22706;DHT22;11520;51.198;4.468;2022-10-04T18:24:47;17.40;99.90
22706;DHT22;11520;51.198;4.468;2022-10-04T18:27:20;17.40;99.90
22706;DHT22;11520;51.198;4.468;2022-10-04T18:35:27;17.40;99.90
22706;DHT22;11520;51.198;4.468;2022-10-04T18:37:47;17.40;99.90
22706;DHT22;11520;51.198;4.468;2022-10-04T18:40:19;17.30;99.90
22706;DHT22;11520;51.198;4.468;2022-10-04T18:42:56;17.20;99.90
22706;DHT22;11520;51.198;4.468;2022-10-04T18:45:28;17.20;99.90
22706;DHT22;11520;51.198;4.468;2022-10-04T18:47:59;17.20;99.90
22706;DHT22;11520;51.198;4.468;2022-10-04T18:50:35;17.20;99.90
22706;DHT22;11520;51.198;4.468;2022-10-04T18:53:40;17.20;99.90
22706;DHT22;11520;51.198;4.468;2022-10-04T18:56:14;17.20;99.90
22706;DHT22;11520;51.198;4.468;2022-10-04T19:02:23;17.30;99.90
22706;DHT22;11520;51.198;4.468;2022-10-04T19:05:17;17.20;99.90
22706;DHT22;11520;51.198;4.468;2022-10-04T19:11:03;17.20;99.90
22706;DHT22;11520;51.198;4.468;2022-10-04T19:13:36;17.30;99.90
22706;DHT22;11520;51.198;4.468;2022-10-04T19:19:24;17.20;99.90
22706;DHT22;11520;51.198;4.468;2022-10-04T19:22:23;17.10;99.90
22706;DHT22;11520;51.198;4.468;2022-10-04T19:25:16;17.10;99.90
22706;DHT22;11520;51.198;4.468;2022-10-04T19:28:02;17.00;99.90
22706;DHT22;11520;51.198;4.468;2022-10-04T19:30:53;17.00;99.90
22706;DHT22;11520;51.198;4.468;2022-10-04T19:33:39;17.00;99.90
22706;DHT22;11520;51.198;4.468;2022-10-04T19:36:26;17.00;99.90
22706;DHT22;11520;51.198;4.468;2022-10-04T19:39:22;16.90;99.90
22706;DHT22;11520;51.198;4.468;2022-10-04T19:41:58;16.90;99.90
22706;DHT22;11520;51.198;4.468;2022-10-04T19:47:25;17.10;99.90
22706;DHT22;11520;51.198;4.468;2022-10-04T19:55:23;17.00;99.90
22706;DHT22;11520;51.198;4.468;2022-10-04T19:58:21;17.00;99.90
22706;DHT22;11520;51.198;4.468;2022-10-04T20:00:48;17.00;99.90
22706;DHT22;11520;51.198;4.468;2022-10-04T20:03:14;17.00;99.90
22706;DHT22;11520;51.198;4.468;2022-10-04T20:05:47;17.00;99.90
22706;DHT22;11520;51.198;4.468;2022-10-04T20:08:15;17.00;99.90
22706;DHT22;11520;51.198;4.468;2022-10-04T20:10:42;16.90;99.90
22706;DHT22;11520;51.198;4.468;2022-10-04T20:13:22;16.90;99.90
22706;DHT22;11520;51.198;4.468;2022-10-04T20:15:56;16.90;99.90
22706;DHT22;11520;51.198;4.468;2022-10-04T20:18:57;16.90;99.90
22706;DHT22;11520;51.198;4.468;2022-10-04T20:21:24;16.90;99.90
22706;DHT22;11520;51.198;4.468;2022-10-04T20:23:57;16.90;99.90
22706;DHT22;11520;51.198;4.468;2022-10-04T20:26:43;17.00;99.90
22706;DHT22;11520;51.198;4.468;2022-10-04T20:35:12;17.00;99.90
22706;DHT22;11520;51.198;4.468;2022-10-04T20:45:49;17.00;99.90
22706;DHT22;11520;51.198;4.468;2022-10-04T20:48:27;17.00;99.90
22706;DHT22;11520;51.198;4.468;2022-10-04T20:50:56;17.00;99.90
22706;DHT22;11520;51.198;4.468;2022-10-04T20:53:31;17.00;99.90
22706;DHT22;11520;51.198;4.468;2022-10-04T20:59:04;17.00;99.90
22706;DHT22;11520;51.198;4.468;2022-10-04T21:01:34;17.00;99.90
22706;DHT22;11520;51.198;4.468;2022-10-04T21:04:23;16.90;99.90
22706;DHT22;11520;51.198;4.468;2022-10-04T21:07:09;16.90;99.90
22706;DHT22;11520;51.198;4.468;2022-10-04T21:09:40;17.00;99.90
22706;DHT22;11520;51.198;4.468;2022-10-04T21:19:57;16.90;99.90
22706;DHT22;11520;51.198;4.468;2022-10-04T21:24:58;16.90;99.90
22706;DHT22;11520;51.198;4.468;2022-10-04T21:29:56;17.00;99.90
22706;DHT22;11520;51.198;4.468;2022-10-04T21:32:23;17.00;99.90
22706;DHT22;11520;51.198;4.468;2022-10-04T21:34:50;17.00;99.90
22706;DHT22;11520;51.198;4.468;2022-10-04T21:37:16;17.00;99.90
22706;DHT22;11520;51.198;4.468;2022-10-04T21:39:42;17.10;99.90
22706;DHT22;11520;51.198;4.468;2022-10-04T21:42:09;17.10;99.90
22706;DHT22;11520;51.198;4.468;2022-10-04T21:44:35;17.10;99.90
22706;DHT22;11520;51.198;4.468;2022-10-04T21:47:01;17.00;99.90
22706;DHT22;11520;51.198;4.468;2022-10-04T21:49:27;17.10;99.90
22706;DHT22;11520;51.198;4.468;2022-10-04T21:51:54;17.10;99.90
22706;DHT22;11520;51.198;4.468;2022-10-04T21:54:20;17.10;99.90
22706;DHT22;11520;51.198;4.468;2022-10-04T21:56:45;17.00;99.90
22706;DHT22;11520;51.198;4.468;2022-10-04T21:59:12;17.00;99.90
22706;DHT22;11520;51.198;4.468;2022-10-04T22:01:37;17.10;99.90
22706;DHT22;11520;51.198;4.468;2022-10-04T22:04:04;17.10;99.90
22706;DHT22;11520;51.198;4.468;2022-10-04T22:06:31;17.10;99.90
22706;DHT22;11520;51.198;4.468;2022-10-04T22:08:56;17.10;99.90
22706;DHT22;11520;51.198;4.468;2022-10-04T22:11:23;17.10;99.90
22706;DHT22;11520;51.198;4.468;2022-10-04T22:13:49;17.10;99.90
22706;DHT22;11520;51.198;4.468;2022-10-04T22:16:16;17.10;99.90
22706;DHT22;11520;51.198;4.468;2022-10-04T22:18:42;17.10;99.90
22706;DHT22;11520;51.198;4.468;2022-10-04T22:21:07;17.10;99.90
22706;DHT22;11520;51.198;4.468;2022-10-04T22:23:43;17.10;99.90
22706;DHT22;11520;51.198;4.468;2022-10-04T22:26:14;17.10;99.90
22706;DHT22;11520;51.198;4.468;2022-10-04T22:28:52;17.00;99.90
22706;DHT22;11520;51.198;4.468;2022-10-04T22:31:20;17.00;99.90
22706;DHT22;11520;51.198;4.468;2022-10-04T22:33:48;17.00;99.90
22706;DHT22;11520;51.198;4.468;2022-10-04T22:36:14;17.00;99.90
22706;DHT22;11520;51.198;4.468;2022-10-04T22:38:57;17.00;99.90
22706;DHT22;11520;51.198;4.468;2022-10-04T22:41:27;17.00;99.90
22706;DHT22;11520;51.198;4.468;2022-10-04T22:43:57;16.90;99.90
22706;DHT22;11520;51.198;4.468;2022-10-04T22:46:31;16.90;99.90
22706;DHT22;11520;51.198;4.468;2022-10-04T22:48:58;16.90;99.90
22706;DHT22;11520;51.198;4.468;2022-10-04T22:51:27;16.90;99.90
22706;DHT22;11520;51.198;4.468;2022-10-04T22:53:53;16.90;99.90
22706;DHT22;11520;51.198;4.468;2022-10-04T22:56:20;16.90;99.90
22706;DHT22;11520;51.198;4.468;2022-10-04T22:58:47;16.90;99.90
22706;DHT22;11520;51.198;4.468;2022-10-04T23:01:16;16.80;99.90
22706;DHT22;11520;51.198;4.468;2022-10-04T23:03:47;16.90;99.90
22706;DHT22;11520;51.198;4.468;2022-10-04T23:06:13;16.90;99.90
22706;DHT22;11520;51.198;4.468;2022-10-04T23:08:43;16.80;99.90
22706;DHT22;11520;51.198;4.468;2022-10-04T23:11:09;16.80;99.90
22706;DHT22;11520;51.198;4.468;2022-10-04T23:13:35;16.80;99.90
22706;DHT22;11520;51.198;4.468;2022-10-04T23:16:21;16.80;99.90
22706;DHT22;11520;51.198;4.468;2022-10-04T23:18:47;16.80;99.90
22706;DHT22;11520;51.198;4.468;2022-10-04T23:21:21;16.80;99.90
22706;DHT22;11520;51.198;4.468;2022-10-04T23:23:48;16.80;99.90
22706;DHT22;11520;51.198;4.468;2022-10-04T23:26:21;16.80;99.90
22706;DHT22;11520;51.198;4.468;2022-10-04T23:28:47;16.80;99.90
22706;DHT22;11520;51.198;4.468;2022-10-04T23:31:25;16.80;99.90
22706;DHT22;11520;51.198;4.468;2022-10-04T23:33:55;16.80;99.90
22706;DHT22;11520;51.198;4.468;2022-10-04T23:36:22;16.80;99.90
22706;DHT22;11520;51.198;4.468;2022-10-04T23:38:58;16.90;99.90
22706;DHT22;11520;51.198;4.468;2022-10-04T23:41:24;16.80;99.90
22706;DHT22;11520;51.198;4.468;2022-10-04T23:43:50;16.70;99.90
22706;DHT22;11520;51.198;4.468;2022-10-04T23:46:18;16.80;99.90
22706;DHT22;11520;51.198;4.468;2022-10-04T23:48:45;16.60;99.90
22706;DHT22;11520;51.198;4.468;2022-10-04T23:51:14;16.60;99.90
22706;DHT22;11520;51.198;4.468;2022-10-04T23:53:41;16.60;99.90
22706;DHT22;11520;51.198;4.468;2022-10-04T23:56:20;16.60;99.90
22706;DHT22;11520;51.198;4.468;2022-10-04T23:58:49;16.60;99.90
